Graceville, Florida
Current Conditions -  °F | °C
As of 12:58 PM on Friday 21 Nov 2014 (Local Time) from K1J0 Reporting Station
Clear Clear  
Wind Chill: 69°   Ceiling: Unl
Heat Index: 69°   Visibility: 10mi
Dew Point: 44°   Wind: 12mph
Humidity: 40%   Direction: 40°NE
Pressure: 30.31"   Gusts: 17mph
Location:  30.96°N, 85.52°W
Report Text: K1J0 211858Z AUTO 04010G15KT 10SM CLR 21/07 A3031 RMK AO2 SLP248 T02060067
Loading
Personal Weather Stations






























Interactive Weather Map New forecast layout! Learn more

10-Day Weather Forecast

Advertisements
Track Severe Weather on mobile